Time;durP1;ratioP1;P1;durP2;ratioP2;P2;SDS_P1;SDS_P2;PMS_P1;PMS_P2;Temp;Humidity;BMP_temperature;BMP_pressure;BME280_temperature;BME280_humidity;BME280_pressure;Samples;Min_cycle;Max_cycle;Signal;HPM_P1;HPM_P2
2023/05/18 00:00:54;;;;;;;5.32;3.20;;;;;;;;;;10038468;28;20046;-69
2023/05/18 00:05:48;;;;;;;5.47;3.42;;;;;;;;;;10041821;28;20056;-69
2023/05/18 00:10:42;;;;;;;5.38;3.78;;;;;;;;;;10033225;28;20100;-68
2023/05/18 00:15:36;;;;;;;4.90;3.53;;;;;;;;;;10037864;28;20096;-69
2023/05/18 00:20:31;;;;;;;4.10;3.55;;;;;;;;;;10032777;28;20045;-68
2023/05/18 00:25:24;;;;;;;3.20;2.88;;;;;;;;;;10034807;28;20467;-68
2023/05/18 00:30:18;;;;;;;3.47;3.05;;;;;;;;;;10031419;28;20046;-69
2023/05/18 00:35:12;;;;;;;7.40;3.30;;;;;;;;;;10034128;28;20042;-68
2023/05/18 00:40:07;;;;;;;5.05;3.50;;;;;;;;;;10047915;28;20060;-68
2023/05/18 00:45:02;;;;;;;3.42;3.13;;;;;;;;;;10032480;28;20481;-68
2023/05/18 00:49:54;;;;;;;8.52;3.50;;;;;;;;;;10039543;28;20076;-68
2023/05/18 00:54:50;;;;;;;4.05;3.08;;;;;;;;;;10031086;28;20057;-69
2023/05/18 00:59:46;;;;;;;5.87;3.43;;;;;;;;;;10033642;28;20049;-68
2023/05/18 01:04:40;;;;;;;8.18;4.13;;;;;;;;;;10015099;28;20460;-68
2023/05/18 01:09:33;;;;;;;3.67;3.25;;;;;;;;;;10032411;28;20037;-68
2023/05/18 01:14:44;;;;;;;3.65;2.97;;;;;;;;;;10029130;28;20060;-68
2023/05/18 01:19:45;;;;;;;4.25;3.55;;;;;;;;;;10033972;28;21102;-68
2023/05/18 01:24:44;;;;;;;4.00;3.60;;;;;;;;;;10037835;28;20374;-68
2023/05/18 01:29:37;;;;;;;3.00;2.80;;;;;;;;;;10007373;28;20062;-68
2023/05/18 01:34:31;;;;;;;5.72;3.00;;;;;;;;;;10030688;28;20042;-69
2023/05/18 01:39:24;;;;;;;9.55;2.95;;;;;;;;;;10039121;28;20053;-69
2023/05/18 01:44:26;;;;;;;4.70;3.00;;;;;;;;;;10029560;28;20046;-68
2023/05/18 01:49:26;;;;;;;5.80;3.47;;;;;;;;;;10028666;28;20042;-68
2023/05/18 01:54:20;;;;;;;11.18;3.00;;;;;;;;;;10032299;28;20531;-68
2023/05/18 01:59:15;;;;;;;3.53;3.17;;;;;;;;;;10032955;28;20064;-68
2023/05/18 02:04:09;;;;;;;3.33;3.03;;;;;;;;;;10014180;28;20050;-68
2023/05/18 02:09:22;;;;;;;6.22;3.10;;;;;;;;;;10030561;28;20140;-68
2023/05/18 02:14:15;;;;;;;5.18;2.70;;;;;;;;;;10042879;28;20045;-68
2023/05/18 02:19:10;;;;;;;5.20;3.13;;;;;;;;;;10026778;28;20042;-68
2023/05/18 02:24:11;;;;;;;4.78;3.00;;;;;;;;;;10029759;28;20084;-68
2023/05/18 02:29:05;;;;;;;11.20;3.22;;;;;;;;;;10036166;28;20425;-68
2023/05/18 02:33:58;;;;;;;6.80;3.25;;;;;;;;;;10028793;28;20050;-68
2023/05/18 02:38:51;;;;;;;5.68;3.42;;;;;;;;;;10034587;28;20060;-68
2023/05/18 02:43:45;;;;;;;5.82;3.20;;;;;;;;;;10026810;28;20143;-68
2023/05/18 02:48:38;;;;;;;5.60;3.20;;;;;;;;;;10028664;28;20448;-68
2023/05/18 02:53:31;;;;;;;3.65;2.40;;;;;;;;;;10033548;28;20512;-68
2023/05/18 02:58:31;;;;;;;3.20;2.90;;;;;;;;;;10033000;28;20054;-68
2023/05/18 03:03:35;;;;;;;8.77;3.05;;;;;;;;;;10029976;28;20049;-68
2023/05/18 03:08:30;;;;;;;4.78;3.83;;;;;;;;;;10032725;28;20402;-68
2023/05/18 03:13:24;;;;;;;5.03;3.05;;;;;;;;;;10038227;28;20045;-68
2023/05/18 03:18:20;;;;;;;16.20;4.63;;;;;;;;;;10030631;28;20609;-69
2023/05/18 03:23:13;;;;;;;9.55;3.92;;;;;;;;;;10030519;28;20092;-68
2023/05/18 03:28:07;;;;;;;12.88;4.20;;;;;;;;;;10024713;28;20480;-68
2023/05/18 03:33:01;;;;;;;5.55;3.45;;;;;;;;;;10024955;28;20505;-68
2023/05/18 03:37:55;;;;;;;4.93;3.10;;;;;;;;;;10033283;28;20093;-69
2023/05/18 03:42:49;;;;;;;13.70;3.83;;;;;;;;;;10026093;28;20436;-67
2023/05/18 03:47:42;;;;;;;15.88;3.30;;;;;;;;;;10027441;28;20069;-68
2023/05/18 03:52:35;;;;;;;5.88;3.60;;;;;;;;;;10029106;28;20104;-68
2023/05/18 03:57:31;;;;;;;7.57;3.22;;;;;;;;;;10027364;28;20054;-68
2023/05/18 04:02:25;;;;;;;6.95;5.38;;;;;;;;;;10024574;28;20060;-68
2023/05/18 04:07:21;;;;;;;5.28;3.50;;;;;;;;;;10023999;28;20045;-68
2023/05/18 04:12:15;;;;;;;9.63;4.60;;;;;;;;;;10001822;28;20055;-68
2023/05/18 04:17:08;;;;;;;4.90;3.35;;;;;;;;;;10037715;28;20103;-68
2023/05/18 04:22:04;;;;;;;8.70;3.55;;;;;;;;;;10031292;28;20581;-68
2023/05/18 04:26:59;;;;;;;3.67;3.08;;;;;;;;;;10024767;28;20529;-68
2023/05/18 04:31:59;;;;;;;4.35;3.95;;;;;;;;;;10034321;28;20054;-68
2023/05/18 04:37:09;;;;;;;7.13;4.03;;;;;;;;;;10041527;28;20485;-67
2023/05/18 04:42:03;;;;;;;5.78;4.32;;;;;;;;;;10007953;28;20107;-68
2023/05/18 04:46:56;;;;;;;4.20;3.50;;;;;;;;;;10032966;28;20152;-68
2023/05/18 04:51:54;;;;;;;5.95;3.45;;;;;;;;;;10033179;28;20053;-68
2023/05/18 04:56:47;;;;;;;13.73;3.95;;;;;;;;;;10034252;28;20048;-68
2023/05/18 05:01:42;;;;;;;7.90;3.97;;;;;;;;;;10030110;28;20088;-68
2023/05/18 05:06:36;;;;;;;8.75;4.30;;;;;;;;;;10030838;28;20423;-68
2023/05/18 05:11:29;;;;;;;5.95;4.15;;;;;;;;;;10014403;28;20050;-67
2023/05/18 05:16:22;;;;;;;9.38;4.25;;;;;;;;;;10041758;28;20045;-67
2023/05/18 05:21:15;;;;;;;5.82;4.32;;;;;;;;;;10030888;28;20045;-67
2023/05/18 05:26:09;;;;;;;10.32;4.63;;;;;;;;;;10014801;28;20525;-68
2023/05/18 05:31:03;;;;;;;9.73;4.63;;;;;;;;;;10029400;28;20045;-68
2023/05/18 05:35:57;;;;;;;7.70;4.53;;;;;;;;;;10035896;28;20136;-68
2023/05/18 05:40:51;;;;;;;7.82;4.65;;;;;;;;;;10035835;28;20046;-68
2023/05/18 05:45:44;;;;;;;9.48;4.47;;;;;;;;;;10031028;28;20414;-67
2023/05/18 05:50:38;;;;;;;7.47;4.63;;;;;;;;;;10032117;28;20041;-68
2023/05/18 05:55:31;;;;;;;5.78;4.35;;;;;;;;;;10026207;28;20104;-67
2023/05/18 06:00:27;;;;;;;6.65;5.10;;;;;;;;;;10043437;28;20055;-68
2023/05/18 06:05:25;;;;;;;7.50;5.18;;;;;;;;;;10032001;28;20056;-68
2023/05/18 06:10:21;;;;;;;7.65;6.20;;;;;;;;;;10013679;28;20060;-69
2023/05/18 06:15:14;;;;;;;9.05;4.80;;;;;;;;;;10027761;28;20092;-68
2023/05/18 06:20:12;;;;;;;5.40;4.90;;;;;;;;;;10030863;28;20045;-68
2023/05/18 06:25:07;;;;;;;5.32;4.32;;;;;;;;;;10042690;28;20045;-69
2023/05/18 06:30:13;;;;;;;12.05;6.50;;;;;;;;;;10048627;28;20080;-68
2023/05/18 06:35:23;;;;;;;6.28;4.72;;;;;;;;;;10032344;28;20523;-67
2023/05/18 06:40:16;;;;;;;6.32;5.20;;;;;;;;;;10014712;28;20046;-66
2023/05/18 06:45:12;;;;;;;6.85;4.38;;;;;;;;;;10025569;28;20477;-67
2023/05/18 06:50:13;;;;;;;8.35;4.60;;;;;;;;;;10022718;28;20076;-67
2023/05/18 06:55:07;;;;;;;14.40;4.15;;;;;;;;;;10026288;28;20141;-69
2023/05/18 07:00:00;;;;;;;7.90;4.10;;;;;;;;;;10017528;28;20078;-68
2023/05/18 07:04:55;;;;;;;5.93;3.85;;;;;;;;;;10030331;28;20053;-68
2023/05/18 07:09:48;;;;;;;6.38;3.83;;;;;;;;;;10014666;28;20133;-67
2023/05/18 07:14:42;;;;;;;10.48;3.63;;;;;;;;;;10025504;28;20112;-66
2023/05/18 07:19:36;;;;;;;5.18;4.68;;;;;;;;;;10034952;28;20073;-67
2023/05/18 07:24:30;;;;;;;8.82;4.28;;;;;;;;;;10037852;28;20058;-66
2023/05/18 07:29:24;;;;;;;12.63;5.03;;;;;;;;;;10036979;28;20052;-66
2023/05/18 07:34:18;;;;;;;8.55;4.80;;;;;;;;;;10037910;28;20052;-65
2023/05/18 07:39:18;;;;;;;10.70;5.50;;;;;;;;;;10033911;28;20527;-66
2023/05/18 07:44:12;;;;;;;9.68;5.50;;;;;;;;;;10033477;28;20056;-65
2023/05/18 07:49:05;;;;;;;8.52;5.65;;;;;;;;;;10036407;28;20128;-65
2023/05/18 07:53:58;;;;;;;7.78;6.03;;;;;;;;;;10032305;28;20095;-66
2023/05/18 07:58:52;;;;;;;12.07;6.30;;;;;;;;;;10027840;28;20065;-65
2023/05/18 08:03:45;;;;;;;14.38;6.80;;;;;;;;;;10035836;28;20129;-66
2023/05/18 08:08:39;;;;;;;12.57;7.40;;;;;;;;;;10032927;28;20086;-65
2023/05/18 08:13:32;;;;;;;17.10;6.53;;;;;;;;;;10027513;28;20549;-66
2023/05/18 08:18:26;;;;;;;13.05;7.38;;;;;;;;;;10037757;28;20073;-66
2023/05/18 08:23:20;;;;;;;5.85;4.43;;;;;;;;;;10046024;28;20104;-66
2023/05/18 08:28:13;;;;;;;7.15;3.65;;;;;;;;;;10036660;28;20129;-66
2023/05/18 08:33:07;;;;;;;5.93;3.72;;;;;;;;;;10038816;28;20041;-66
2023/05/18 08:38:01;;;;;;;9.90;4.93;;;;;;;;;;10031261;28;20066;-67
2023/05/18 08:42:56;;;;;;;6.90;3.90;;;;;;;;;;10033630;28;20509;-71
2023/05/18 08:47:50;;;;;;;6.45;3.50;;;;;;;;;;10038998;28;20046;-69
2023/05/18 08:52:47;;;;;;;4.15;3.72;;;;;;;;;;10039381;28;20068;-70
2023/05/18 08:57:42;;;;;;;5.07;3.58;;;;;;;;;;10036287;28;20501;-69
2023/05/18 09:02:38;;;;;;;3.83;3.28;;;;;;;;;;10047597;28;20054;-70
2023/05/18 09:07:31;;;;;;;3.30;3.00;;;;;;;;;;10046919;28;20075;-67
2023/05/18 09:12:26;;;;;;;5.85;2.45;;;;;;;;;;10017397;28;20104;-71
2023/05/18 09:17:21;;;;;;;10.27;2.85;;;;;;;;;;10028424;28;20567;-70
2023/05/18 09:22:15;;;;;;;5.35;2.03;;;;;;;;;;10025169;28;20656;-70
2023/05/18 09:27:09;;;;;;;2.08;1.83;;;;;;;;;;10033999;28;20104;-70
2023/05/18 09:32:04;;;;;;;2.90;1.30;;;;;;;;;;10037828;28;20061;-69
2023/05/18 09:36:56;;;;;;;3.70;1.25;;;;;;;;;;10031854;28;20046;-69
2023/05/18 09:41:56;;;;;;;4.45;1.70;;;;;;;;;;10029358;28;20057;-70
2023/05/18 09:46:54;;;;;;;6.05;2.03;;;;;;;;;;10028624;28;20058;-69
2023/05/18 09:51:47;;;;;;;;;;;;;;;;;;10032837;28;20085;-69
2023/05/18 09:56:40;;;;;;;2.72;1.52;;;;;;;;;;10064303;28;20407;-69
2023/05/18 10:01:33;;;;;;;7.18;1.38;;;;;;;;;;10045121;28;20049;-69
2023/05/18 10:06:27;;;;;;;5.88;1.13;;;;;;;;;;10033764;28;20058;-69
2023/05/18 10:11:22;;;;;;;3.97;0.90;;;;;;;;;;10011004;28;20497;-67
2023/05/18 10:16:15;;;;;;;1.85;1.08;;;;;;;;;;10024284;28;20417;-67
2023/05/18 10:21:11;;;;;;;2.15;1.02;;;;;;;;;;10023859;28;20105;-68
2023/05/18 10:26:06;;;;;;;2.70;1.38;;;;;;;;;;10026253;28;20053;-68
2023/05/18 10:31:07;;;;;;;1.83;0.90;;;;;;;;;;10022717;28;20108;-68
2023/05/18 10:36:03;;;;;;;2.95;1.05;;;;;;;;;;10025185;28;20412;-68
2023/05/18 10:41:00;;;;;;;4.82;1.40;;;;;;;;;;10026267;28;20049;-68
2023/05/18 10:45:59;;;;;;;1.90;0.80;;;;;;;;;;10027998;28;20385;-69
2023/05/18 10:50:54;;;;;;;2.40;0.88;;;;;;;;;;10029614;28;20566;-69
2023/05/18 10:55:50;;;;;;;4.25;0.90;;;;;;;;;;10028761;28;20100;-69
2023/05/18 11:01:05;;;;;;;1.92;0.93;;;;;;;;;;10023404;28;20065;-68
2023/05/18 11:06:06;;;;;;;3.25;1.20;;;;;;;;;;10022258;28;20112;-71
2023/05/18 11:11:06;;;;;;;3.75;0.98;;;;;;;;;;10020714;28;20053;-71
2023/05/18 11:16:15;;;;;;;2.97;1.30;;;;;;;;;;10028261;28;20043;-68
2023/05/18 11:21:31;;;;;;;2.97;1.10;;;;;;;;;;10020587;28;20042;-67
2023/05/18 11:26:28;;;;;;;2.05;1.20;;;;;;;;;;10021950;28;20528;-67
2023/05/18 11:31:21;;;;;;;5.88;1.45;;;;;;;;;;10020544;28;20049;-71
2023/05/18 11:36:25;;;;;;;1.27;1.13;;;;;;;;;;10027676;28;20045;-67
2023/05/18 11:41:30;;;;;;;4.07;1.50;;;;;;;;;;10023957;28;20049;-67
2023/05/18 11:46:25;;;;;;;2.05;1.00;;;;;;;;;;10023215;28;20046;-68
2023/05/18 11:51:23;;;;;;;3.40;1.00;;;;;;;;;;10030398;28;20050;-67
2023/05/18 11:56:16;;;;;;;1.25;0.90;;;;;;;;;;10031805;28;20116;-67
2023/05/18 12:01:11;;;;;;;2.78;1.10;;;;;;;;;;10036537;28;20045;-67
2023/05/18 12:06:06;;;;;;;3.67;1.35;;;;;;;;;;10041180;28;20042;-67
2023/05/18 12:11:01;;;;;;;0.90;0.73;;;;;;;;;;10031212;28;20064;-69
2023/05/18 12:15:56;;;;;;;2.60;1.00;;;;;;;;;;10036284;28;20129;-69
2023/05/18 12:20:51;;;;;;;2.63;0.88;;;;;;;;;;10034545;28;20104;-68
2023/05/18 12:25:49;;;;;;;3.05;1.13;;;;;;;;;;10040478;28;20077;-67
2023/05/18 12:30:43;;;;;;;5.15;1.65;;;;;;;;;;10030727;28;20077;-69
2023/05/18 12:35:36;;;;;;;2.65;1.27;;;;;;;;;;10030515;28;20044;-68
2023/05/18 12:40:47;;;;;;;2.63;1.13;;;;;;;;;;10025478;28;20080;-68
2023/05/18 12:45:43;;;;;;;2.42;1.17;;;;;;;;;;10035255;28;20065;-68
2023/05/18 12:50:46;;;;;;;2.47;1.00;;;;;;;;;;10031878;28;20486;-67
2023/05/18 12:55:40;;;;;;;1.45;0.90;;;;;;;;;;10035904;28;20112;-67
2023/05/18 13:00:35;;;;;;;3.35;1.05;;;;;;;;;;10025073;28;20133;-66
2023/05/18 13:05:30;;;;;;;2.70;0.70;;;;;;;;;;10027219;28;20104;-66
2023/05/18 13:10:23;;;;;;;1.95;0.90;;;;;;;;;;10020518;28;20559;-67
2023/05/18 13:15:17;;;;;;;1.80;0.80;;;;;;;;;;10021431;28;20072;-68
2023/05/18 13:20:14;;;;;;;1.73;1.02;;;;;;;;;;10023186;28;20050;-67
2023/05/18 13:25:07;;;;;;;2.15;0.90;;;;;;;;;;10023899;28;20501;-68
2023/05/18 13:30:02;;;;;;;1.77;0.88;;;;;;;;;;10016714;28;20088;-67
2023/05/18 13:34:54;;;;;;;1.02;0.90;;;;;;;;;;10023446;28;20050;-67
2023/05/18 13:39:48;;;;;;;0.90;0.60;;;;;;;;;;10024325;28;20514;-67
2023/05/18 13:44:42;;;;;;;2.15;0.85;;;;;;;;;;10022817;28;20497;-66
2023/05/18 13:49:37;;;;;;;1.10;0.80;;;;;;;;;;10026450;28;20041;-66
2023/05/18 13:54:30;;;;;;;2.00;0.70;;;;;;;;;;10030114;28;20146;-66
2023/05/18 13:59:26;;;;;;;2.63;1.55;;;;;;;;;;10018763;28;20041;-66
2023/05/18 14:04:19;;;;;;;3.30;1.50;;;;;;;;;;10033187;28;20469;-66
2023/05/18 14:09:13;;;;;;;1.73;0.73;;;;;;;;;;10027138;28;20053;-66
2023/05/18 14:14:07;;;;;;;2.33;1.13;;;;;;;;;;10030358;28;20133;-66
2023/05/18 14:19:01;;;;;;;2.00;0.70;;;;;;;;;;10032062;28;20074;-67
2023/05/18 14:23:55;;;;;;;1.08;0.77;;;;;;;;;;10008403;28;20050;-66
2023/05/18 14:28:48;;;;;;;1.85;1.08;;;;;;;;;;10014411;28;20089;-67
2023/05/18 14:33:43;;;;;;;3.88;0.90;;;;;;;;;;10020821;28;20476;-66
2023/05/18 14:38:36;;;;;;;3.13;0.85;;;;;;;;;;10024317;28;20593;-66
2023/05/18 14:43:30;;;;;;;3.22;1.23;;;;;;;;;;10027146;28;20140;-66
2023/05/18 14:48:24;;;;;;;3.92;1.13;;;;;;;;;;10030156;28;20053;-68
2023/05/18 14:53:18;;;;;;;2.45;2.00;;;;;;;;;;10030823;28;20061;-66
2023/05/18 14:58:13;;;;;;;3.70;1.42;;;;;;;;;;10019465;28;20042;-67
2023/05/18 15:03:07;;;;;;;2.60;1.02;;;;;;;;;;10024083;28;20073;-66
2023/05/18 15:08:01;;;;;;;2.28;1.15;;;;;;;;;;10023561;28;20057;-65
2023/05/18 15:12:55;;;;;;;1.48;1.02;;;;;;;;;;10020834;28;20048;-66
2023/05/18 15:17:49;;;;;;;1.38;1.10;;;;;;;;;;10023509;28;20085;-66
2023/05/18 15:22:43;;;;;;;2.15;1.17;;;;;;;;;;10033845;28;20057;-65
2023/05/18 15:27:37;;;;;;;3.22;1.08;;;;;;;;;;10029556;28;20053;-66
2023/05/18 15:32:30;;;;;;;1.25;0.82;;;;;;;;;;10026785;28;20494;-66
2023/05/18 15:37:23;;;;;;;1.42;0.98;;;;;;;;;;10025414;28;20046;-64
2023/05/18 15:42:16;;;;;;;3.40;1.05;;;;;;;;;;10022471;28;20133;-65
2023/05/18 15:47:10;;;;;;;6.25;1.30;;;;;;;;;;10023494;28;20440;-64
2023/05/18 15:52:04;;;;;;;4.60;1.27;;;;;;;;;;10023390;28;20049;-66
2023/05/18 15:56:57;;;;;;;3.40;1.17;;;;;;;;;;10022501;28;20050;-72
2023/05/18 16:01:50;;;;;;;7.50;1.63;;;;;;;;;;10033181;28;20046;-67
2023/05/18 16:06:44;;;;;;;4.60;1.20;;;;;;;;;;10036042;28;20052;-67
2023/05/18 16:11:37;;;;;;;4.10;1.30;;;;;;;;;;10022015;28;20081;-67
2023/05/18 16:16:31;;;;;;;6.90;1.55;;;;;;;;;;10034565;28;20054;-67
2023/05/18 16:21:24;;;;;;;1.67;1.17;;;;;;;;;;10021546;28;20053;-67
2023/05/18 16:26:17;;;;;;;2.55;1.30;;;;;;;;;;10037200;28;20044;-67
2023/05/18 16:31:11;;;;;;;2.97;1.40;;;;;;;;;;10029075;28;20064;-67
2023/05/18 16:36:04;;;;;;;2.40;1.17;;;;;;;;;;10037995;28;20050;-68
2023/05/18 16:40:59;;;;;;;4.63;1.30;;;;;;;;;;10046583;28;20457;-67
2023/05/18 16:45:52;;;;;;;3.90;1.40;;;;;;;;;;10035103;28;20080;-67
2023/05/18 16:50:46;;;;;;;1.67;1.35;;;;;;;;;;10028860;28;20091;-67
2023/05/18 16:55:40;;;;;;;10.05;2.95;;;;;;;;;;10045095;28;20046;-67
2023/05/18 17:00:34;;;;;;;2.03;1.45;;;;;;;;;;10045198;28;20058;-67
2023/05/18 17:05:28;;;;;;;3.15;1.48;;;;;;;;;;10042996;28;20078;-67
2023/05/18 17:10:22;;;;;;;7.20;2.78;;;;;;;;;;10042642;28;20137;-67
2023/05/18 17:15:16;;;;;;;25.88;17.23;;;;;;;;;;10046258;28;20497;-67
2023/05/18 17:20:11;;;;;;;4.78;4.05;;;;;;;;;;10042981;28;20441;-67
2023/05/18 17:25:05;;;;;;;4.80;2.63;;;;;;;;;;10039209;28;20448;-67
2023/05/18 17:29:59;;;;;;;4.13;3.67;;;;;;;;;;10031100;28;20050;-68
2023/05/18 17:34:52;;;;;;;6.43;2.92;;;;;;;;;;10034723;28;20053;-68
2023/05/18 17:39:47;;;;;;;3.10;2.80;;;;;;;;;;10038525;28;20053;-66
2023/05/18 17:44:40;;;;;;;4.75;2.50;;;;;;;;;;10035299;28;20069;-68
2023/05/18 17:49:34;;;;;;;8.50;2.22;;;;;;;;;;10045797;28;20054;-67
2023/05/18 17:54:28;;;;;;;2.53;2.00;;;;;;;;;;10032713;28;20058;-67
2023/05/18 17:59:23;;;;;;;8.23;2.13;;;;;;;;;;10037436;28;20435;-67
2023/05/18 18:04:16;;;;;;;6.53;3.05;;;;;;;;;;10038913;28;20042;-67
2023/05/18 18:09:08;;;;;;;3.80;2.00;;;;;;;;;;10028587;28;20116;-68
2023/05/18 18:14:03;;;;;;;2.28;1.90;;;;;;;;;;10048378;28;20412;-68
2023/05/18 18:18:58;;;;;;;3.53;1.95;;;;;;;;;;10034041;28;20053;-67
2023/05/18 18:23:51;;;;;;;4.45;2.00;;;;;;;;;;10033878;28;20090;-68
2023/05/18 18:28:45;;;;;;;8.50;3.05;;;;;;;;;;10028342;28;20410;-66
2023/05/18 18:33:42;;;;;;;3.75;1.70;;;;;;;;;;10029028;28;20053;-67
2023/05/18 18:38:36;;;;;;;7.15;2.25;;;;;;;;;;10046810;28;20072;-76
2023/05/18 18:43:29;;;;;;;6.10;1.88;;;;;;;;;;10050221;28;20501;-64
2023/05/18 18:48:23;;;;;;;5.15;2.22;;;;;;;;;;10046350;28;20037;-62
2023/05/18 18:53:17;;;;;;;7.43;3.60;;;;;;;;;;10042033;28;20123;-66
2023/05/18 18:58:10;;;;;;;6.90;3.28;;;;;;;;;;10041182;28;20091;-66
2023/05/18 19:03:04;;;;;;;6.38;3.38;;;;;;;;;;10031902;28;20049;-67
2023/05/18 19:07:58;;;;;;;8.00;2.50;;;;;;;;;;10030919;28;20045;-67
2023/05/18 19:12:51;;;;;;;7.25;3.20;;;;;;;;;;10034666;28;20137;-67
2023/05/18 19:17:45;;;;;;;3.45;2.88;;;;;;;;;;10029992;28;20073;-69
2023/05/18 19:22:39;;;;;;;11.80;2.97;;;;;;;;;;10018171;28;20046;-69
2023/05/18 19:27:32;;;;;;;4.47;3.20;;;;;;;;;;10014782;28;20080;-69
2023/05/18 19:32:26;;;;;;;6.97;2.58;;;;;;;;;;10018036;28;20053;-67
2023/05/18 19:37:20;;;;;;;4.63;3.20;;;;;;;;;;10021166;28;20050;-68
2023/05/18 19:42:13;;;;;;;4.25;3.38;;;;;;;;;;10023330;28;20564;-69
2023/05/18 19:47:07;;;;;;;4.95;3.50;;;;;;;;;;10021702;28;20556;-70
2023/05/18 19:52:00;;;;;;;4.45;3.28;;;;;;;;;;10023268;28;20064;-68
2023/05/18 19:56:54;;;;;;;6.90;3.88;;;;;;;;;;10028089;28;20050;-73
2023/05/18 20:01:49;;;;;;;4.90;3.85;;;;;;;;;;10005054;28;20116;-71
2023/05/18 20:06:43;;;;;;;5.55;3.80;;;;;;;;;;10011605;28;20046;-73
2023/05/18 20:11:37;;;;;;;11.10;7.13;;;;;;;;;;10027698;28;20045;-69
2023/05/18 20:16:33;;;;;;;13.07;6.45;;;;;;;;;;10028720;28;20050;-73
2023/05/18 20:21:28;;;;;;;14.35;6.72;;;;;;;;;;10026781;28;20073;-68
2023/05/18 20:26:22;;;;;;;12.32;7.00;;;;;;;;;;10018673;28;20048;-68
2023/05/18 20:31:16;;;;;;;12.55;7.78;;;;;;;;;;10020238;28;20046;-68
2023/05/18 20:36:12;;;;;;;17.38;7.32;;;;;;;;;;10021956;28;20046;-71
2023/05/18 20:41:08;;;;;;;13.95;5.93;;;;;;;;;;10024227;28;20058;-72
2023/05/18 20:46:04;;;;;;;9.27;5.05;;;;;;;;;;10023048;28;20081;-71
2023/05/18 20:50:58;;;;;;;13.68;6.80;;;;;;;;;;10029695;28;20042;-73
2023/05/18 20:55:53;;;;;;;15.70;7.03;;;;;;;;;;10024367;28;20476;-72
2023/05/18 21:00:46;;;;;;;18.10;6.05;;;;;;;;;;10026461;28;20096;-69
2023/05/18 21:05:42;;;;;;;18.58;7.30;;;;;;;;;;10018951;28;20050;-71
2023/05/18 21:10:35;;;;;;;16.30;6.60;;;;;;;;;;10020367;28;20046;-71
2023/05/18 21:15:28;;;;;;;13.30;4.10;;;;;;;;;;10015852;28;20152;-73
2023/05/18 21:20:21;;;;;;;13.75;3.78;;;;;;;;;;10020574;28;20050;-74
2023/05/18 21:25:16;;;;;;;7.55;3.97;;;;;;;;;;10024682;28;20080;-71
2023/05/18 21:30:11;;;;;;;8.52;3.70;;;;;;;;;;10026867;28;20108;-70
2023/05/18 21:35:06;;;;;;;10.25;3.88;;;;;;;;;;10042416;28;20137;-71
2023/05/18 21:40:00;;;;;;;9.50;4.22;;;;;;;;;;10039634;28;20061;-71
2023/05/18 21:44:53;;;;;;;7.85;4.18;;;;;;;;;;10029789;28;20050;-73
2023/05/18 21:49:47;;;;;;;8.20;4.20;;;;;;;;;;10027110;28;20053;-73
2023/05/18 21:54:41;;;;;;;8.90;3.88;;;;;;;;;;10028506;28;20091;-71
2023/05/18 21:59:34;;;;;;;7.43;4.20;;;;;;;;;;10029490;28;20378;-71
2023/05/18 22:04:28;;;;;;;10.18;4.32;;;;;;;;;;10030712;28;20046;-70
2023/05/18 22:09:21;;;;;;;8.20;5.50;;;;;;;;;;10024066;28;20065;-71
2023/05/18 22:14:16;;;;;;;4.85;4.35;;;;;;;;;;10027780;28;20531;-73
2023/05/18 22:19:10;;;;;;;8.50;4.75;;;;;;;;;;10026536;28;20448;-71
2023/05/18 22:24:05;;;;;;;6.60;4.25;;;;;;;;;;10038452;28;20060;-73
2023/05/18 22:28:58;;;;;;;10.00;4.07;;;;;;;;;;10042519;28;20420;-74
2023/05/18 22:33:51;;;;;;;7.82;3.72;;;;;;;;;;10035142;28;20519;-73
2023/05/18 22:38:48;;;;;;;4.53;3.60;;;;;;;;;;10037182;28;20065;-71
2023/05/18 22:43:41;;;;;;;9.27;3.70;;;;;;;;;;10030010;28;20088;-71
2023/05/18 22:48:36;;;;;;;8.18;4.20;;;;;;;;;;10035919;28;20440;-72
2023/05/18 22:53:30;;;;;;;7.50;4.07;;;;;;;;;;10021191;28;20073;-71
2023/05/18 22:58:23;;;;;;;8.98;4.05;;;;;;;;;;10032612;28;20057;-71
2023/05/18 23:03:17;;;;;;;9.30;3.70;;;;;;;;;;10033251;28;20382;-71
2023/05/18 23:08:11;;;;;;;8.18;4.38;;;;;;;;;;10034881;28;20474;-72
2023/05/18 23:13:06;;;;;;;5.50;3.92;;;;;;;;;;10031175;28;20056;-71
2023/05/18 23:18:00;;;;;;;5.03;3.90;;;;;;;;;;10045329;28;20096;-71
2023/05/18 23:22:54;;;;;;;6.45;4.85;;;;;;;;;;10032071;28;20049;-70
2023/05/18 23:27:47;;;;;;;8.63;4.93;;;;;;;;;;10027514;28;20054;-72
2023/05/18 23:32:44;;;;;;;11.30;4.40;;;;;;;;;;10036182;28;20440;-71
2023/05/18 23:37:40;;;;;;;12.95;4.70;;;;;;;;;;10031597;28;20412;-71
2023/05/18 23:42:35;;;;;;;8.30;4.55;;;;;;;;;;10042216;28;20058;-72
2023/05/18 23:47:29;;;;;;;9.57;5.47;;;;;;;;;;10044384;28;20416;-73
2023/05/18 23:52:25;;;;;;;11.40;5.63;;;;;;;;;;10038130;28;20057;-73
2023/05/18 23:57:19;;;;;;;7.63;4.93;;;;;;;;;;10043029;28;20462;-73
